sensor_id;sensor_type;location;lat;lon;timestamp;P1;durP1;ratioP1;P2;durP2;ratioP2
39022;SDS011;25908;51.984;5.928;2022-08-21T00:00:55;5.88;;;2.80;;
39022;SDS011;25908;51.984;5.928;2022-08-21T00:03:21;7.55;;;3.03;;
39022;SDS011;25908;51.984;5.928;2022-08-21T00:05:48;6.32;;;2.35;;
39022;SDS011;25908;51.984;5.928;2022-08-21T00:08:16;6.25;;;2.83;;
39022;SDS011;25908;51.984;5.928;2022-08-21T00:10:42;6.40;;;3.10;;
39022;SDS011;25908;51.984;5.928;2022-08-21T00:13:10;8.25;;;2.65;;
39022;SDS011;25908;51.984;5.928;2022-08-21T00:15:37;5.18;;;2.72;;
39022;SDS011;25908;51.984;5.928;2022-08-21T00:18:04;4.93;;;2.80;;
39022;SDS011;25908;51.984;5.928;2022-08-21T00:20:31;7.28;;;2.70;;
39022;SDS011;25908;51.984;5.928;2022-08-21T00:22:57;6.38;;;3.50;;
39022;SDS011;25908;51.984;5.928;2022-08-21T00:25:23;6.03;;;2.70;;
39022;SDS011;25908;51.984;5.928;2022-08-21T00:27:49;5.32;;;3.03;;
39022;SDS011;25908;51.984;5.928;2022-08-21T00:30:16;5.00;;;2.75;;
39022;SDS011;25908;51.984;5.928;2022-08-21T00:32:42;7.30;;;4.20;;
39022;SDS011;25908;51.984;5.928;2022-08-21T00:35:10;7.07;;;3.42;;
39022;SDS011;25908;51.984;5.928;2022-08-21T00:37:38;5.63;;;3.05;;
39022;SDS011;25908;51.984;5.928;2022-08-21T00:40:05;9.23;;;2.90;;
39022;SDS011;25908;51.984;5.928;2022-08-21T00:42:34;7.10;;;3.35;;
39022;SDS011;25908;51.984;5.928;2022-08-21T00:44:59;6.88;;;3.08;;
39022;SDS011;25908;51.984;5.928;2022-08-21T00:47:25;8.65;;;3.22;;
39022;SDS011;25908;51.984;5.928;2022-08-21T00:49:50;6.90;;;2.90;;
39022;SDS011;25908;51.984;5.928;2022-08-21T00:52:17;6.28;;;2.80;;
39022;SDS011;25908;51.984;5.928;2022-08-21T00:54:45;5.95;;;2.90;;
39022;SDS011;25908;51.984;5.928;2022-08-21T00:57:14;9.20;;;3.30;;
39022;SDS011;25908;51.984;5.928;2022-08-21T00:59:45;7.35;;;3.72;;
39022;SDS011;25908;51.984;5.928;2022-08-21T01:02:15;6.30;;;3.20;;
39022;SDS011;25908;51.984;5.928;2022-08-21T01:04:41;5.93;;;3.22;;
39022;SDS011;25908;51.984;5.928;2022-08-21T01:07:07;7.53;;;3.15;;
39022;SDS011;25908;51.984;5.928;2022-08-21T01:09:33;7.78;;;4.28;;
39022;SDS011;25908;51.984;5.928;2022-08-21T01:11:59;6.15;;;2.97;;
39022;SDS011;25908;51.984;5.928;2022-08-21T01:14:25;6.75;;;3.08;;
39022;SDS011;25908;51.984;5.928;2022-08-21T01:16:51;8.65;;;3.15;;
39022;SDS011;25908;51.984;5.928;2022-08-21T01:19:18;8.45;;;3.13;;
39022;SDS011;25908;51.984;5.928;2022-08-21T01:21:45;6.30;;;2.83;;
39022;SDS011;25908;51.984;5.928;2022-08-21T01:24:11;6.22;;;2.90;;
39022;SDS011;25908;51.984;5.928;2022-08-21T01:26:37;5.47;;;2.80;;
39022;SDS011;25908;51.984;5.928;2022-08-21T01:31:53;4.90;;;3.13;;
39022;SDS011;25908;51.984;5.928;2022-08-21T01:34:19;5.18;;;2.63;;
39022;SDS011;25908;51.984;5.928;2022-08-21T01:36:45;7.20;;;3.25;;
39022;SDS011;25908;51.984;5.928;2022-08-21T01:39:12;6.38;;;3.22;;
39022;SDS011;25908;51.984;5.928;2022-08-21T01:41:38;8.57;;;3.38;;
39022;SDS011;25908;51.984;5.928;2022-08-21T01:44:04;5.93;;;2.88;;
39022;SDS011;25908;51.984;5.928;2022-08-21T01:46:29;8.43;;;3.65;;
39022;SDS011;25908;51.984;5.928;2022-08-21T01:48:55;7.13;;;2.80;;
39022;SDS011;25908;51.984;5.928;2022-08-21T01:51:21;8.63;;;3.42;;
39022;SDS011;25908;51.984;5.928;2022-08-21T01:53:47;5.68;;;3.10;;
39022;SDS011;25908;51.984;5.928;2022-08-21T01:56:13;8.80;;;3.88;;
39022;SDS011;25908;51.984;5.928;2022-08-21T01:58:41;8.23;;;3.25;;
39022;SDS011;25908;51.984;5.928;2022-08-21T02:01:09;5.05;;;3.15;;
39022;SDS011;25908;51.984;5.928;2022-08-21T02:03:35;6.65;;;3.20;;
39022;SDS011;25908;51.984;5.928;2022-08-21T02:06:01;8.15;;;3.67;;
39022;SDS011;25908;51.984;5.928;2022-08-21T02:08:30;9.35;;;3.85;;
39022;SDS011;25908;51.984;5.928;2022-08-21T02:10:56;5.60;;;3.60;;
39022;SDS011;25908;51.984;5.928;2022-08-21T02:13:22;7.60;;;3.80;;
39022;SDS011;25908;51.984;5.928;2022-08-21T02:15:47;7.85;;;3.90;;
39022;SDS011;25908;51.984;5.928;2022-08-21T02:18:13;8.80;;;4.05;;
39022;SDS011;25908;51.984;5.928;2022-08-21T02:20:41;9.15;;;3.92;;
39022;SDS011;25908;51.984;5.928;2022-08-21T02:23:10;9.40;;;4.40;;
39022;SDS011;25908;51.984;5.928;2022-08-21T02:25:37;8.23;;;4.03;;
39022;SDS011;25908;51.984;5.928;2022-08-21T02:28:04;7.78;;;3.88;;
39022;SDS011;25908;51.984;5.928;2022-08-21T02:30:33;7.13;;;4.03;;
39022;SDS011;25908;51.984;5.928;2022-08-21T02:35:28;5.75;;;4.10;;
39022;SDS011;25908;51.984;5.928;2022-08-21T02:37:55;8.32;;;4.40;;
39022;SDS011;25908;51.984;5.928;2022-08-21T02:40:28;8.27;;;4.45;;
39022;SDS011;25908;51.984;5.928;2022-08-21T02:42:56;7.03;;;4.05;;
39022;SDS011;25908;51.984;5.928;2022-08-21T02:45:22;9.52;;;4.35;;
39022;SDS011;25908;51.984;5.928;2022-08-21T02:47:53;8.43;;;4.68;;
39022;SDS011;25908;51.984;5.928;2022-08-21T02:50:22;8.13;;;4.05;;
39022;SDS011;25908;51.984;5.928;2022-08-21T02:52:49;7.43;;;3.65;;
39022;SDS011;25908;51.984;5.928;2022-08-21T02:55:17;7.45;;;4.18;;
39022;SDS011;25908;51.984;5.928;2022-08-21T02:57:43;9.85;;;4.55;;
39022;SDS011;25908;51.984;5.928;2022-08-21T03:00:09;9.20;;;4.53;;
39022;SDS011;25908;51.984;5.928;2022-08-21T03:02:37;9.93;;;5.55;;
39022;SDS011;25908;51.984;5.928;2022-08-21T03:05:04;7.70;;;4.60;;
39022;SDS011;25908;51.984;5.928;2022-08-21T03:07:31;7.15;;;4.30;;
39022;SDS011;25908;51.984;5.928;2022-08-21T03:09:56;6.30;;;4.28;;
39022;SDS011;25908;51.984;5.928;2022-08-21T03:12:22;7.03;;;4.60;;
39022;SDS011;25908;51.984;5.928;2022-08-21T03:14:48;9.73;;;4.90;;
39022;SDS011;25908;51.984;5.928;2022-08-21T03:17:14;6.75;;;4.47;;
39022;SDS011;25908;51.984;5.928;2022-08-21T03:19:39;8.98;;;4.78;;
39022;SDS011;25908;51.984;5.928;2022-08-21T03:22:05;7.82;;;4.85;;
39022;SDS011;25908;51.984;5.928;2022-08-21T03:24:31;7.50;;;4.25;;
39022;SDS011;25908;51.984;5.928;2022-08-21T03:26:56;7.10;;;3.90;;
39022;SDS011;25908;51.984;5.928;2022-08-21T03:29:22;6.50;;;4.22;;
39022;SDS011;25908;51.984;5.928;2022-08-21T03:31:47;5.88;;;3.40;;
39022;SDS011;25908;51.984;5.928;2022-08-21T03:34:13;8.35;;;4.10;;
39022;SDS011;25908;51.984;5.928;2022-08-21T03:36:39;6.53;;;4.00;;
39022;SDS011;25908;51.984;5.928;2022-08-21T03:39:04;7.35;;;3.95;;
39022;SDS011;25908;51.984;5.928;2022-08-21T03:41:30;7.50;;;4.50;;
39022;SDS011;25908;51.984;5.928;2022-08-21T03:43:56;8.90;;;4.38;;
39022;SDS011;25908;51.984;5.928;2022-08-21T03:46:21;6.97;;;4.25;;
39022;SDS011;25908;51.984;5.928;2022-08-21T03:48:47;6.55;;;4.15;;
39022;SDS011;25908;51.984;5.928;2022-08-21T03:51:13;6.18;;;4.07;;
39022;SDS011;25908;51.984;5.928;2022-08-21T03:53:38;8.68;;;4.13;;
39022;SDS011;25908;51.984;5.928;2022-08-21T03:56:04;7.65;;;4.38;;
39022;SDS011;25908;51.984;5.928;2022-08-21T03:58:31;6.43;;;4.25;;
39022;SDS011;25908;51.984;5.928;2022-08-21T04:00:57;8.75;;;3.42;;
39022;SDS011;25908;51.984;5.928;2022-08-21T04:03:24;5.57;;;3.55;;
39022;SDS011;25908;51.984;5.928;2022-08-21T04:05:51;7.22;;;3.80;;
39022;SDS011;25908;51.984;5.928;2022-08-21T04:08:17;6.93;;;3.58;;
39022;SDS011;25908;51.984;5.928;2022-08-21T04:10:43;9.48;;;3.95;;
39022;SDS011;25908;51.984;5.928;2022-08-21T04:13:12;6.20;;;3.72;;
39022;SDS011;25908;51.984;5.928;2022-08-21T04:15:39;6.78;;;3.65;;
39022;SDS011;25908;51.984;5.928;2022-08-21T04:18:05;7.57;;;3.72;;
39022;SDS011;25908;51.984;5.928;2022-08-21T04:20:33;10.80;;;4.60;;
39022;SDS011;25908;51.984;5.928;2022-08-21T04:22:59;7.80;;;3.42;;
39022;SDS011;25908;51.984;5.928;2022-08-21T04:25:26;7.93;;;4.25;;
39022;SDS011;25908;51.984;5.928;2022-08-21T04:27:52;7.43;;;3.85;;
39022;SDS011;25908;51.984;5.928;2022-08-21T04:30:18;6.72;;;4.18;;
39022;SDS011;25908;51.984;5.928;2022-08-21T04:32:45;8.70;;;4.53;;
39022;SDS011;25908;51.984;5.928;2022-08-21T04:35:12;7.53;;;4.32;;
39022;SDS011;25908;51.984;5.928;2022-08-21T04:37:39;7.32;;;4.28;;
39022;SDS011;25908;51.984;5.928;2022-08-21T04:40:05;8.45;;;4.30;;
39022;SDS011;25908;51.984;5.928;2022-08-21T04:42:32;6.80;;;4.30;;
39022;SDS011;25908;51.984;5.928;2022-08-21T04:44:58;7.32;;;3.95;;
39022;SDS011;25908;51.984;5.928;2022-08-21T04:47:23;7.00;;;4.50;;
39022;SDS011;25908;51.984;5.928;2022-08-21T04:49:49;8.90;;;4.88;;
39022;SDS011;25908;51.984;5.928;2022-08-21T04:52:16;7.25;;;4.30;;
39022;SDS011;25908;51.984;5.928;2022-08-21T04:54:44;6.75;;;4.25;;
39022;SDS011;25908;51.984;5.928;2022-08-21T04:57:12;8.70;;;4.45;;
39022;SDS011;25908;51.984;5.928;2022-08-21T04:59:42;8.82;;;4.65;;
39022;SDS011;25908;51.984;5.928;2022-08-21T05:02:10;8.05;;;4.75;;
39022;SDS011;25908;51.984;5.928;2022-08-21T05:04:39;8.23;;;4.72;;
39022;SDS011;25908;51.984;5.928;2022-08-21T05:07:14;6.60;;;4.30;;
39022;SDS011;25908;51.984;5.928;2022-08-21T05:09:44;8.95;;;5.30;;
39022;SDS011;25908;51.984;5.928;2022-08-21T05:12:10;8.32;;;4.65;;
39022;SDS011;25908;51.984;5.928;2022-08-21T05:14:36;6.45;;;4.80;;
39022;SDS011;25908;51.984;5.928;2022-08-21T05:17:01;8.02;;;5.03;;
39022;SDS011;25908;51.984;5.928;2022-08-21T05:19:27;10.15;;;4.68;;
39022;SDS011;25908;51.984;5.928;2022-08-21T05:21:53;8.35;;;5.00;;
39022;SDS011;25908;51.984;5.928;2022-08-21T05:24:19;10.18;;;5.40;;
39022;SDS011;25908;51.984;5.928;2022-08-21T05:26:44;9.30;;;5.70;;
39022;SDS011;25908;51.984;5.928;2022-08-21T05:29:11;10.57;;;4.70;;
39022;SDS011;25908;51.984;5.928;2022-08-21T05:31:37;7.53;;;4.93;;
39022;SDS011;25908;51.984;5.928;2022-08-21T05:34:03;6.38;;;4.43;;
39022;SDS011;25908;51.984;5.928;2022-08-21T05:36:30;8.63;;;4.57;;
39022;SDS011;25908;51.984;5.928;2022-08-21T05:38:56;7.05;;;5.22;;
39022;SDS011;25908;51.984;5.928;2022-08-21T05:41:21;7.55;;;4.72;;
39022;SDS011;25908;51.984;5.928;2022-08-21T05:43:47;7.55;;;5.43;;
39022;SDS011;25908;51.984;5.928;2022-08-21T05:46:13;9.75;;;5.55;;
39022;SDS011;25908;51.984;5.928;2022-08-21T05:48:40;8.60;;;5.30;;
39022;SDS011;25908;51.984;5.928;2022-08-21T05:51:06;8.93;;;6.07;;
39022;SDS011;25908;51.984;5.928;2022-08-21T05:53:33;9.27;;;6.97;;
39022;SDS011;25908;51.984;5.928;2022-08-21T05:56:00;11.10;;;6.50;;
39022;SDS011;25908;51.984;5.928;2022-08-21T05:58:28;8.55;;;5.93;;
39022;SDS011;25908;51.984;5.928;2022-08-21T06:00:54;11.82;;;7.00;;
39022;SDS011;25908;51.984;5.928;2022-08-21T06:03:21;11.38;;;7.95;;
39022;SDS011;25908;51.984;5.928;2022-08-21T06:05:49;11.68;;;8.60;;
39022;SDS011;25908;51.984;5.928;2022-08-21T06:08:15;13.10;;;7.97;;
39022;SDS011;25908;51.984;5.928;2022-08-21T06:10:42;16.45;;;9.35;;
39022;SDS011;25908;51.984;5.928;2022-08-21T06:13:08;15.75;;;9.57;;
39022;SDS011;25908;51.984;5.928;2022-08-21T06:15:35;15.43;;;9.93;;
39022;SDS011;25908;51.984;5.928;2022-08-21T06:18:00;13.52;;;9.93;;
39022;SDS011;25908;51.984;5.928;2022-08-21T06:20:26;13.48;;;9.57;;
39022;SDS011;25908;51.984;5.928;2022-08-21T06:22:52;19.00;;;8.90;;
39022;SDS011;25908;51.984;5.928;2022-08-21T06:25:18;16.98;;;8.93;;
39022;SDS011;25908;51.984;5.928;2022-08-21T06:27:44;16.10;;;10.18;;
39022;SDS011;25908;51.984;5.928;2022-08-21T06:30:10;16.65;;;9.18;;
39022;SDS011;25908;51.984;5.928;2022-08-21T06:32:36;12.27;;;8.48;;
39022;SDS011;25908;51.984;5.928;2022-08-21T06:35:01;16.80;;;9.13;;
39022;SDS011;25908;51.984;5.928;2022-08-21T06:37:28;12.10;;;7.57;;
39022;SDS011;25908;51.984;5.928;2022-08-21T06:39:54;12.93;;;8.07;;
39022;SDS011;25908;51.984;5.928;2022-08-21T06:42:19;16.25;;;8.98;;
39022;SDS011;25908;51.984;5.928;2022-08-21T06:44:45;13.38;;;7.80;;
39022;SDS011;25908;51.984;5.928;2022-08-21T06:47:11;12.32;;;6.85;;
39022;SDS011;25908;51.984;5.928;2022-08-21T06:49:37;12.13;;;7.80;;
39022;SDS011;25908;51.984;5.928;2022-08-21T06:52:02;14.82;;;8.48;;
39022;SDS011;25908;51.984;5.928;2022-08-21T06:54:28;14.35;;;6.75;;
39022;SDS011;25908;51.984;5.928;2022-08-21T06:56:55;14.02;;;8.00;;
39022;SDS011;25908;51.984;5.928;2022-08-21T06:59:21;13.43;;;7.53;;
39022;SDS011;25908;51.984;5.928;2022-08-21T07:01:46;12.70;;;6.60;;
39022;SDS011;25908;51.984;5.928;2022-08-21T07:04:12;12.23;;;6.47;;
39022;SDS011;25908;51.984;5.928;2022-08-21T07:06:37;11.85;;;6.50;;
39022;SDS011;25908;51.984;5.928;2022-08-21T07:09:03;11.48;;;5.55;;
39022;SDS011;25908;51.984;5.928;2022-08-21T07:11:29;12.55;;;6.57;;
39022;SDS011;25908;51.984;5.928;2022-08-21T07:13:54;13.15;;;6.47;;
39022;SDS011;25908;51.984;5.928;2022-08-21T07:16:21;10.93;;;6.55;;
39022;SDS011;25908;51.984;5.928;2022-08-21T07:18:47;10.25;;;5.70;;
39022;SDS011;25908;51.984;5.928;2022-08-21T07:21:13;12.63;;;6.20;;
39022;SDS011;25908;51.984;5.928;2022-08-21T07:23:41;12.90;;;6.28;;
39022;SDS011;25908;51.984;5.928;2022-08-21T07:26:10;12.32;;;6.22;;
39022;SDS011;25908;51.984;5.928;2022-08-21T07:28:37;9.98;;;5.60;;
39022;SDS011;25908;51.984;5.928;2022-08-21T07:31:02;12.38;;;5.93;;
39022;SDS011;25908;51.984;5.928;2022-08-21T07:33:29;16.92;;;5.40;;
39022;SDS011;25908;51.984;5.928;2022-08-21T07:35:56;15.95;;;7.40;;
39022;SDS011;25908;51.984;5.928;2022-08-21T07:38:22;10.27;;;5.80;;
39022;SDS011;25908;51.984;5.928;2022-08-21T07:40:50;14.77;;;5.75;;
39022;SDS011;25908;51.984;5.928;2022-08-21T07:43:17;11.15;;;5.05;;
39022;SDS011;25908;51.984;5.928;2022-08-21T07:45:43;13.93;;;5.70;;
39022;SDS011;25908;51.984;5.928;2022-08-21T07:48:09;14.35;;;6.15;;
39022;SDS011;25908;51.984;5.928;2022-08-21T07:50:35;14.88;;;5.45;;
39022;SDS011;25908;51.984;5.928;2022-08-21T07:53:00;14.55;;;6.35;;
39022;SDS011;25908;51.984;5.928;2022-08-21T07:55:27;14.18;;;5.03;;
39022;SDS011;25908;51.984;5.928;2022-08-21T07:57:53;13.90;;;5.68;;
39022;SDS011;25908;51.984;5.928;2022-08-21T08:00:19;11.23;;;5.80;;
39022;SDS011;25908;51.984;5.928;2022-08-21T08:02:47;12.68;;;5.03;;
39022;SDS011;25908;51.984;5.928;2022-08-21T08:05:16;11.63;;;5.20;;
39022;SDS011;25908;51.984;5.928;2022-08-21T08:07:45;12.30;;;5.45;;
39022;SDS011;25908;51.984;5.928;2022-08-21T08:10:11;13.52;;;5.10;;
39022;SDS011;25908;51.984;5.928;2022-08-21T08:12:37;12.90;;;5.57;;
39022;SDS011;25908;51.984;5.928;2022-08-21T08:15:05;12.48;;;5.10;;
39022;SDS011;25908;51.984;5.928;2022-08-21T08:17:33;13.90;;;5.10;;
39022;SDS011;25908;51.984;5.928;2022-08-21T08:19:58;9.60;;;4.43;;
39022;SDS011;25908;51.984;5.928;2022-08-21T08:22:26;10.15;;;4.47;;
39022;SDS011;25908;51.984;5.928;2022-08-21T08:24:52;10.65;;;4.43;;
39022;SDS011;25908;51.984;5.928;2022-08-21T08:27:18;14.65;;;5.45;;
39022;SDS011;25908;51.984;5.928;2022-08-21T08:29:45;12.65;;;4.28;;
39022;SDS011;25908;51.984;5.928;2022-08-21T08:32:11;11.20;;;4.10;;
39022;SDS011;25908;51.984;5.928;2022-08-21T08:34:37;15.40;;;4.93;;
39022;SDS011;25908;51.984;5.928;2022-08-21T08:37:04;12.90;;;4.32;;
39022;SDS011;25908;51.984;5.928;2022-08-21T08:39:30;11.18;;;4.85;;
39022;SDS011;25908;51.984;5.928;2022-08-21T08:42:14;11.65;;;4.57;;
39022;SDS011;25908;51.984;5.928;2022-08-21T08:44:45;12.70;;;4.30;;
39022;SDS011;25908;51.984;5.928;2022-08-21T08:47:12;11.90;;;4.40;;
39022;SDS011;25908;51.984;5.928;2022-08-21T08:49:44;11.80;;;4.43;;
39022;SDS011;25908;51.984;5.928;2022-08-21T08:52:30;12.68;;;4.10;;
39022;SDS011;25908;51.984;5.928;2022-08-21T08:55:08;13.68;;;4.18;;
39022;SDS011;25908;51.984;5.928;2022-08-21T08:57:38;13.07;;;3.78;;
39022;SDS011;25908;51.984;5.928;2022-08-21T09:00:09;14.15;;;4.85;;
39022;SDS011;25908;51.984;5.928;2022-08-21T09:02:38;10.48;;;3.72;;
39022;SDS011;25908;51.984;5.928;2022-08-21T09:05:05;12.65;;;4.32;;
39022;SDS011;25908;51.984;5.928;2022-08-21T09:07:53;13.45;;;4.70;;
39022;SDS011;25908;51.984;5.928;2022-08-21T09:13:32;9.35;;;2.92;;
39022;SDS011;25908;51.984;5.928;2022-08-21T09:21:34;8.57;;;2.97;;
39022;SDS011;25908;51.984;5.928;2022-08-21T09:24:29;7.38;;;2.60;;
39022;SDS011;25908;51.984;5.928;2022-08-21T09:27:15;7.28;;;2.50;;
39022;SDS011;25908;51.984;5.928;2022-08-21T09:29:43;8.93;;;2.88;;
39022;SDS011;25908;51.984;5.928;2022-08-21T09:32:27;9.75;;;2.72;;
39022;SDS011;25908;51.984;5.928;2022-08-21T09:37:28;10.63;;;2.70;;
39022;SDS011;25908;51.984;5.928;2022-08-21T09:39:54;10.52;;;2.28;;
39022;SDS011;25908;51.984;5.928;2022-08-21T09:42:26;11.27;;;2.67;;
39022;SDS011;25908;51.984;5.928;2022-08-21T09:45:10;9.48;;;2.83;;
39022;SDS011;25908;51.984;5.928;2022-08-21T09:47:39;8.68;;;2.13;;
39022;SDS011;25908;51.984;5.928;2022-08-21T09:50:13;10.00;;;2.40;;
39022;SDS011;25908;51.984;5.928;2022-08-21T09:52:46;10.27;;;2.88;;
39022;SDS011;25908;51.984;5.928;2022-08-21T09:55:30;13.90;;;2.85;;
39022;SDS011;25908;51.984;5.928;2022-08-21T09:58:17;8.88;;;2.55;;
39022;SDS011;25908;51.984;5.928;2022-08-21T10:00:45;9.75;;;2.42;;
39022;SDS011;25908;51.984;5.928;2022-08-21T10:03:21;6.45;;;1.75;;
39022;SDS011;25908;51.984;5.928;2022-08-21T10:05:50;7.15;;;1.80;;
39022;SDS011;25908;51.984;5.928;2022-08-21T10:08:19;5.93;;;1.92;;
39022;SDS011;25908;51.984;5.928;2022-08-21T10:10:49;9.70;;;1.95;;
39022;SDS011;25908;51.984;5.928;2022-08-21T10:15:56;8.57;;;1.92;;
39022;SDS011;25908;51.984;5.928;2022-08-21T10:21:20;8.48;;;3.03;;
39022;SDS011;25908;51.984;5.928;2022-08-21T10:29:14;8.98;;;2.22;;
39022;SDS011;25908;51.984;5.928;2022-08-21T10:31:57;9.27;;;2.28;;
39022;SDS011;25908;51.984;5.928;2022-08-21T10:37:39;9.15;;;2.78;;
39022;SDS011;25908;51.984;5.928;2022-08-21T10:42:49;7.80;;;2.10;;
39022;SDS011;25908;51.984;5.928;2022-08-21T10:48:28;8.82;;;2.30;;
39022;SDS011;25908;51.984;5.928;2022-08-21T10:51:38;7.20;;;2.28;;
39022;SDS011;25908;51.984;5.928;2022-08-21T10:56:31;7.53;;;1.95;;
39022;SDS011;25908;51.984;5.928;2022-08-21T11:04:45;7.40;;;1.90;;
39022;SDS011;25908;51.984;5.928;2022-08-21T11:07:31;4.93;;;1.50;;
39022;SDS011;25908;51.984;5.928;2022-08-21T11:09:58;6.05;;;1.92;;
39022;SDS011;25908;51.984;5.928;2022-08-21T11:12:43;7.82;;;2.03;;
39022;SDS011;25908;51.984;5.928;2022-08-21T11:15:31;4.95;;;1.50;;
39022;SDS011;25908;51.984;5.928;2022-08-21T11:23:21;7.38;;;2.03;;
39022;SDS011;25908;51.984;5.928;2022-08-21T11:25:53;7.07;;;1.40;;
39022;SDS011;25908;51.984;5.928;2022-08-21T11:28:46;5.43;;;1.55;;
39022;SDS011;25908;51.984;5.928;2022-08-21T11:31:28;5.50;;;1.33;;
39022;SDS011;25908;51.984;5.928;2022-08-21T11:34:17;5.07;;;1.30;;
39022;SDS011;25908;51.984;5.928;2022-08-21T11:37:17;6.10;;;1.63;;
39022;SDS011;25908;51.984;5.928;2022-08-21T11:45:16;5.47;;;1.25;;
39022;SDS011;25908;51.984;5.928;2022-08-21T11:50:44;5.38;;;1.50;;
39022;SDS011;25908;51.984;5.928;2022-08-21T11:53:15;7.38;;;2.30;;
39022;SDS011;25908;51.984;5.928;2022-08-21T11:56:09;8.85;;;2.17;;
39022;SDS011;25908;51.984;5.928;2022-08-21T11:58:48;6.53;;;1.60;;
39022;SDS011;25908;51.984;5.928;2022-08-21T12:01:28;5.13;;;1.77;;
39022;SDS011;25908;51.984;5.928;2022-08-21T12:04:00;5.85;;;1.58;;
39022;SDS011;25908;51.984;5.928;2022-08-21T12:06:34;7.90;;;1.65;;
39022;SDS011;25908;51.984;5.928;2022-08-21T12:09:04;12.90;;;1.77;;
39022;SDS011;25908;51.984;5.928;2022-08-21T12:11:48;7.05;;;1.55;;
39022;SDS011;25908;51.984;5.928;2022-08-21T12:14:37;4.07;;;1.23;;
39022;SDS011;25908;51.984;5.928;2022-08-21T12:17:06;10.13;;;1.98;;
39022;SDS011;25908;51.984;5.928;2022-08-21T12:22:07;4.35;;;1.15;;
39022;SDS011;25908;51.984;5.928;2022-08-21T12:24:36;4.35;;;1.23;;
39022;SDS011;25908;51.984;5.928;2022-08-21T12:29:50;6.90;;;1.63;;
39022;SDS011;25908;51.984;5.928;2022-08-21T12:32:22;7.63;;;1.67;;
39022;SDS011;25908;51.984;5.928;2022-08-21T12:37:22;8.35;;;1.90;;
39022;SDS011;25908;51.984;5.928;2022-08-21T12:39:57;5.28;;;1.65;;
39022;SDS011;25908;51.984;5.928;2022-08-21T12:42:39;6.78;;;1.67;;
39022;SDS011;25908;51.984;5.928;2022-08-21T12:45:17;5.90;;;1.30;;
39022;SDS011;25908;51.984;5.928;2022-08-21T12:48:06;5.72;;;1.40;;
39022;SDS011;25908;51.984;5.928;2022-08-21T12:55:51;5.30;;;1.30;;
39022;SDS011;25908;51.984;5.928;2022-08-21T12:58:18;3.92;;;1.40;;
39022;SDS011;25908;51.984;5.928;2022-08-21T13:00:47;6.40;;;1.65;;
39022;SDS011;25908;51.984;5.928;2022-08-21T13:03:26;5.72;;;1.45;;
39022;SDS011;25908;51.984;5.928;2022-08-21T13:05:52;5.88;;;1.40;;
39022;SDS011;25908;51.984;5.928;2022-08-21T13:08:19;6.80;;;1.40;;
39022;SDS011;25908;51.984;5.928;2022-08-21T13:10:47;11.18;;;1.30;;
39022;SDS011;25908;51.984;5.928;2022-08-21T13:13:22;6.75;;;1.27;;
39022;SDS011;25908;51.984;5.928;2022-08-21T13:15:55;7.47;;;1.40;;
39022;SDS011;25908;51.984;5.928;2022-08-21T13:18:28;6.15;;;1.08;;
39022;SDS011;25908;51.984;5.928;2022-08-21T13:23:40;4.38;;;1.15;;
39022;SDS011;25908;51.984;5.928;2022-08-21T13:26:13;4.88;;;1.30;;
39022;SDS011;25908;51.984;5.928;2022-08-21T13:28:41;4.60;;;1.08;;
39022;SDS011;25908;51.984;5.928;2022-08-21T13:31:08;2.95;;;1.02;;
39022;SDS011;25908;51.984;5.928;2022-08-21T13:33:35;5.28;;;1.48;;
39022;SDS011;25908;51.984;5.928;2022-08-21T13:36:11;4.43;;;1.17;;
39022;SDS011;25908;51.984;5.928;2022-08-21T13:38:42;6.25;;;1.40;;
39022;SDS011;25908;51.984;5.928;2022-08-21T13:43:44;3.55;;;1.00;;
39022;SDS011;25908;51.984;5.928;2022-08-21T13:46:12;5.32;;;1.63;;
39022;SDS011;25908;51.984;5.928;2022-08-21T13:48:39;4.10;;;1.05;;
39022;SDS011;25908;51.984;5.928;2022-08-21T13:51:06;4.90;;;1.33;;
39022;SDS011;25908;51.984;5.928;2022-08-21T13:53:43;4.47;;;1.23;;
39022;SDS011;25908;51.984;5.928;2022-08-21T13:56:32;4.20;;;1.48;;
39022;SDS011;25908;51.984;5.928;2022-08-21T13:59:05;5.65;;;1.40;;
39022;SDS011;25908;51.984;5.928;2022-08-21T14:01:36;5.68;;;1.30;;
39022;SDS011;25908;51.984;5.928;2022-08-21T14:04:16;4.78;;;1.30;;
39022;SDS011;25908;51.984;5.928;2022-08-21T14:06:46;5.10;;;1.30;;
39022;SDS011;25908;51.984;5.928;2022-08-21T14:09:19;4.03;;;1.08;;
39022;SDS011;25908;51.984;5.928;2022-08-21T14:11:50;3.35;;;0.93;;
39022;SDS011;25908;51.984;5.928;2022-08-21T14:16:56;5.82;;;1.35;;
39022;SDS011;25908;51.984;5.928;2022-08-21T14:19:25;6.97;;;1.48;;
39022;SDS011;25908;51.984;5.928;2022-08-21T14:21:53;4.90;;;1.20;;
39022;SDS011;25908;51.984;5.928;2022-08-21T14:26:48;3.65;;;1.00;;
39022;SDS011;25908;51.984;5.928;2022-08-21T14:29:39;5.68;;;1.38;;
39022;SDS011;25908;51.984;5.928;2022-08-21T14:32:10;8.00;;;1.90;;
39022;SDS011;25908;51.984;5.928;2022-08-21T14:34:39;3.90;;;1.25;;
39022;SDS011;25908;51.984;5.928;2022-08-21T14:37:04;4.75;;;1.27;;
39022;SDS011;25908;51.984;5.928;2022-08-21T14:39:30;3.97;;;1.13;;
39022;SDS011;25908;51.984;5.928;2022-08-21T14:41:56;5.63;;;1.30;;
39022;SDS011;25908;51.984;5.928;2022-08-21T14:44:22;3.47;;;1.20;;
39022;SDS011;25908;51.984;5.928;2022-08-21T14:46:48;2.33;;;0.85;;
39022;SDS011;25908;51.984;5.928;2022-08-21T14:49:15;4.38;;;1.23;;
39022;SDS011;25908;51.984;5.928;2022-08-21T14:51:40;2.95;;;1.35;;
39022;SDS011;25908;51.984;5.928;2022-08-21T14:54:06;4.05;;;1.20;;
39022;SDS011;25908;51.984;5.928;2022-08-21T14:56:32;3.63;;;1.10;;
39022;SDS011;25908;51.984;5.928;2022-08-21T14:58:59;5.65;;;1.45;;
39022;SDS011;25908;51.984;5.928;2022-08-21T15:01:29;8.70;;;2.13;;
39022;SDS011;25908;51.984;5.928;2022-08-21T15:03:59;5.40;;;1.20;;
39022;SDS011;25908;51.984;5.928;2022-08-21T15:06:24;4.07;;;1.10;;
39022;SDS011;25908;51.984;5.928;2022-08-21T15:08:50;5.78;;;1.23;;
39022;SDS011;25908;51.984;5.928;2022-08-21T15:11:17;5.10;;;1.30;;
39022;SDS011;25908;51.984;5.928;2022-08-21T15:13:44;7.82;;;1.60;;
39022;SDS011;25908;51.984;5.928;2022-08-21T15:16:11;6.28;;;1.55;;
39022;SDS011;25908;51.984;5.928;2022-08-21T15:18:37;4.75;;;1.30;;
39022;SDS011;25908;51.984;5.928;2022-08-21T15:21:03;6.30;;;1.50;;
39022;SDS011;25908;51.984;5.928;2022-08-21T15:23:29;3.88;;;1.30;;
39022;SDS011;25908;51.984;5.928;2022-08-21T15:25:54;5.28;;;1.95;;
39022;SDS011;25908;51.984;5.928;2022-08-21T15:28:22;6.22;;;1.92;;
39022;SDS011;25908;51.984;5.928;2022-08-21T15:30:49;7.18;;;2.10;;
39022;SDS011;25908;51.984;5.928;2022-08-21T15:33:15;4.07;;;1.73;;
39022;SDS011;25908;51.984;5.928;2022-08-21T15:35:41;3.80;;;1.85;;
39022;SDS011;25908;51.984;5.928;2022-08-21T15:38:07;7.18;;;2.00;;
39022;SDS011;25908;51.984;5.928;2022-08-21T15:40:33;4.20;;;1.23;;
39022;SDS011;25908;51.984;5.928;2022-08-21T15:43:01;4.40;;;1.13;;
39022;SDS011;25908;51.984;5.928;2022-08-21T15:45:29;3.55;;;1.20;;
39022;SDS011;25908;51.984;5.928;2022-08-21T15:47:55;5.65;;;1.42;;
39022;SDS011;25908;51.984;5.928;2022-08-21T15:50:21;3.70;;;1.42;;
39022;SDS011;25908;51.984;5.928;2022-08-21T15:52:48;7.63;;;2.00;;
39022;SDS011;25908;51.984;5.928;2022-08-21T15:55:14;8.13;;;1.48;;
39022;SDS011;25908;51.984;5.928;2022-08-21T15:57:44;7.95;;;2.00;;
39022;SDS011;25908;51.984;5.928;2022-08-21T16:00:18;8.30;;;3.50;;
39022;SDS011;25908;51.984;5.928;2022-08-21T16:02:47;8.40;;;3.17;;
39022;SDS011;25908;51.984;5.928;2022-08-21T16:05:16;7.05;;;2.38;;
39022;SDS011;25908;51.984;5.928;2022-08-21T16:07:43;8.02;;;3.05;;
39022;SDS011;25908;51.984;5.928;2022-08-21T16:10:09;9.05;;;5.05;;
39022;SDS011;25908;51.984;5.928;2022-08-21T16:12:36;6.97;;;2.50;;
39022;SDS011;25908;51.984;5.928;2022-08-21T16:15:05;6.32;;;1.77;;
39022;SDS011;25908;51.984;5.928;2022-08-21T16:17:33;14.32;;;7.22;;